sensor_id;sensor_type;location;lat;lon;timestamp;temperature;humidity
42833;DHT22;64089;51.478;5.692;2024-01-30T00:01:41;7.50;99.90
42833;DHT22;64089;51.478;5.692;2024-01-30T00:04:06;7.50;99.90
42833;DHT22;64089;51.478;5.692;2024-01-30T00:06:32;7.40;99.90
42833;DHT22;64089;51.478;5.692;2024-01-30T00:08:58;7.40;99.90
42833;DHT22;64089;51.478;5.692;2024-01-30T00:11:23;7.40;99.90
42833;DHT22;64089;51.478;5.692;2024-01-30T00:13:52;7.40;99.90
42833;DHT22;64089;51.478;5.692;2024-01-30T00:16:22;7.40;99.90
42833;DHT22;64089;51.478;5.692;2024-01-30T00:18:50;7.40;99.90
42833;DHT22;64089;51.478;5.692;2024-01-30T00:21:17;7.40;99.90
42833;DHT22;64089;51.478;5.692;2024-01-30T00:23:43;7.30;99.90
42833;DHT22;64089;51.478;5.692;2024-01-30T00:26:08;7.30;99.90
42833;DHT22;64089;51.478;5.692;2024-01-30T00:28:34;7.30;99.90
42833;DHT22;64089;51.478;5.692;2024-01-30T00:31:00;7.30;99.90
42833;DHT22;64089;51.478;5.692;2024-01-30T00:33:25;7.30;99.90
42833;DHT22;64089;51.478;5.692;2024-01-30T00:35:51;7.20;99.90
42833;DHT22;64089;51.478;5.692;2024-01-30T00:38:17;7.30;99.90
42833;DHT22;64089;51.478;5.692;2024-01-30T00:40:43;7.30;99.90
42833;DHT22;64089;51.478;5.692;2024-01-30T00:43:08;7.30;99.90
42833;DHT22;64089;51.478;5.692;2024-01-30T00:45:34;7.30;99.90
42833;DHT22;64089;51.478;5.692;2024-01-30T00:47:59;7.30;99.90
42833;DHT22;64089;51.478;5.692;2024-01-30T00:50:25;7.30;99.90
42833;DHT22;64089;51.478;5.692;2024-01-30T00:52:51;7.20;99.90
42833;DHT22;64089;51.478;5.692;2024-01-30T00:55:16;7.20;99.90
42833;DHT22;64089;51.478;5.692;2024-01-30T00:57:42;7.20;99.90
42833;DHT22;64089;51.478;5.692;2024-01-30T01:00:08;7.20;99.90
42833;DHT22;64089;51.478;5.692;2024-01-30T01:02:37;7.20;99.90
42833;DHT22;64089;51.478;5.692;2024-01-30T01:05:04;7.20;99.90
42833;DHT22;64089;51.478;5.692;2024-01-30T01:07:30;7.20;99.90
42833;DHT22;64089;51.478;5.692;2024-01-30T01:09:56;7.20;99.90
42833;DHT22;64089;51.478;5.692;2024-01-30T01:12:21;7.20;99.90
42833;DHT22;64089;51.478;5.692;2024-01-30T01:14:47;7.20;99.90
42833;DHT22;64089;51.478;5.692;2024-01-30T01:17:13;7.20;99.90
42833;DHT22;64089;51.478;5.692;2024-01-30T01:19:38;7.20;99.90
42833;DHT22;64089;51.478;5.692;2024-01-30T01:22:04;7.20;99.90
42833;DHT22;64089;51.478;5.692;2024-01-30T01:24:31;7.20;99.90
42833;DHT22;64089;51.478;5.692;2024-01-30T01:26:58;7.20;99.90
42833;DHT22;64089;51.478;5.692;2024-01-30T01:29:24;7.10;99.90
42833;DHT22;64089;51.478;5.692;2024-01-30T01:31:57;7.10;99.90
42833;DHT22;64089;51.478;5.692;2024-01-30T01:34:23;7.10;99.90
42833;DHT22;64089;51.478;5.692;2024-01-30T01:36:52;7.10;99.90
42833;DHT22;64089;51.478;5.692;2024-01-30T01:39:21;7.10;99.90
42833;DHT22;64089;51.478;5.692;2024-01-30T01:41:47;7.10;99.90
42833;DHT22;64089;51.478;5.692;2024-01-30T01:44:13;7.10;99.90
42833;DHT22;64089;51.478;5.692;2024-01-30T01:46:39;7.10;99.90
42833;DHT22;64089;51.478;5.692;2024-01-30T01:49:05;7.20;99.90
42833;DHT22;64089;51.478;5.692;2024-01-30T01:51:33;7.20;99.90
42833;DHT22;64089;51.478;5.692;2024-01-30T01:54:02;7.30;99.90
42833;DHT22;64089;51.478;5.692;2024-01-30T01:56:29;7.30;99.90
42833;DHT22;64089;51.478;5.692;2024-01-30T01:59:05;7.30;99.90
42833;DHT22;64089;51.478;5.692;2024-01-30T02:01:33;7.30;99.90
42833;DHT22;64089;51.478;5.692;2024-01-30T02:03:59;7.30;99.90
42833;DHT22;64089;51.478;5.692;2024-01-30T02:06:25;7.40;99.90
42833;DHT22;64089;51.478;5.692;2024-01-30T02:08:51;7.40;99.90
42833;DHT22;64089;51.478;5.692;2024-01-30T02:11:17;7.40;99.90
42833;DHT22;64089;51.478;5.692;2024-01-30T02:13:43;7.40;99.90
42833;DHT22;64089;51.478;5.692;2024-01-30T02:16:09;7.40;99.90
42833;DHT22;64089;51.478;5.692;2024-01-30T02:18:35;7.30;99.90
42833;DHT22;64089;51.478;5.692;2024-01-30T02:21:05;7.30;99.90
42833;DHT22;64089;51.478;5.692;2024-01-30T02:23:32;7.30;99.90
42833;DHT22;64089;51.478;5.692;2024-01-30T02:25:58;7.30;99.90
42833;DHT22;64089;51.478;5.692;2024-01-30T02:28:24;7.20;99.90
42833;DHT22;64089;51.478;5.692;2024-01-30T02:30:50;7.20;99.90
42833;DHT22;64089;51.478;5.692;2024-01-30T02:33:18;7.20;99.90
42833;DHT22;64089;51.478;5.692;2024-01-30T02:35:44;7.10;99.90
42833;DHT22;64089;51.478;5.692;2024-01-30T02:38:10;7.10;99.90
42833;DHT22;64089;51.478;5.692;2024-01-30T02:40:35;7.20;99.90
42833;DHT22;64089;51.478;5.692;2024-01-30T02:43:02;7.10;99.90
42833;DHT22;64089;51.478;5.692;2024-01-30T02:45:28;7.10;99.90
42833;DHT22;64089;51.478;5.692;2024-01-30T02:47:53;7.10;99.90
42833;DHT22;64089;51.478;5.692;2024-01-30T02:50:19;7.10;99.90
42833;DHT22;64089;51.478;5.692;2024-01-30T02:52:45;7.10;99.90
42833;DHT22;64089;51.478;5.692;2024-01-30T02:55:11;7.10;99.90
42833;DHT22;64089;51.478;5.692;2024-01-30T02:57:40;7.20;99.90
42833;DHT22;64089;51.478;5.692;2024-01-30T03:00:06;7.20;99.90
42833;DHT22;64089;51.478;5.692;2024-01-30T03:02:34;7.10;99.90
42833;DHT22;64089;51.478;5.692;2024-01-30T03:05:00;7.20;99.90
42833;DHT22;64089;51.478;5.692;2024-01-30T03:07:26;7.20;99.90
42833;DHT22;64089;51.478;5.692;2024-01-30T03:09:51;7.20;99.90
42833;DHT22;64089;51.478;5.692;2024-01-30T03:12:17;7.30;99.90
42833;DHT22;64089;51.478;5.692;2024-01-30T03:14:43;7.30;99.90
42833;DHT22;64089;51.478;5.692;2024-01-30T03:17:09;7.30;99.90
42833;DHT22;64089;51.478;5.692;2024-01-30T03:19:34;7.40;99.90
42833;DHT22;64089;51.478;5.692;2024-01-30T03:22:00;7.30;99.90
42833;DHT22;64089;51.478;5.692;2024-01-30T03:24:26;7.30;99.90
42833;DHT22;64089;51.478;5.692;2024-01-30T03:26:51;7.40;99.90
42833;DHT22;64089;51.478;5.692;2024-01-30T03:29:17;7.40;99.90
42833;DHT22;64089;51.478;5.692;2024-01-30T03:31:43;7.40;99.90
42833;DHT22;64089;51.478;5.692;2024-01-30T03:34:08;7.40;99.90
42833;DHT22;64089;51.478;5.692;2024-01-30T03:36:34;7.40;99.90
42833;DHT22;64089;51.478;5.692;2024-01-30T03:39:00;7.30;99.90
42833;DHT22;64089;51.478;5.692;2024-01-30T03:41:26;7.30;99.90
42833;DHT22;64089;51.478;5.692;2024-01-30T03:43:51;7.30;99.90
42833;DHT22;64089;51.478;5.692;2024-01-30T03:46:17;7.30;99.90
42833;DHT22;64089;51.478;5.692;2024-01-30T03:48:43;7.30;99.90
42833;DHT22;64089;51.478;5.692;2024-01-30T03:51:09;7.30;99.90
42833;DHT22;64089;51.478;5.692;2024-01-30T03:53:40;7.30;99.90
42833;DHT22;64089;51.478;5.692;2024-01-30T03:56:06;7.30;99.90
42833;DHT22;64089;51.478;5.692;2024-01-30T03:58:32;7.40;99.90
42833;DHT22;64089;51.478;5.692;2024-01-30T04:00:57;7.40;99.90
42833;DHT22;64089;51.478;5.692;2024-01-30T04:03:23;7.40;99.90
42833;DHT22;64089;51.478;5.692;2024-01-30T04:05:48;7.40;99.90
42833;DHT22;64089;51.478;5.692;2024-01-30T04:08:17;7.50;99.90
42833;DHT22;64089;51.478;5.692;2024-01-30T04:10:43;7.50;99.90
42833;DHT22;64089;51.478;5.692;2024-01-30T04:13:08;7.50;99.90
42833;DHT22;64089;51.478;5.692;2024-01-30T04:15:34;7.60;99.90
42833;DHT22;64089;51.478;5.692;2024-01-30T04:18:00;7.70;99.90
42833;DHT22;64089;51.478;5.692;2024-01-30T04:20:26;7.70;99.90
42833;DHT22;64089;51.478;5.692;2024-01-30T04:22:52;7.60;99.90
42833;DHT22;64089;51.478;5.692;2024-01-30T04:25:17;7.60;99.90
42833;DHT22;64089;51.478;5.692;2024-01-30T04:27:43;7.60;99.90
42833;DHT22;64089;51.478;5.692;2024-01-30T04:30:09;7.60;99.90
42833;DHT22;64089;51.478;5.692;2024-01-30T04:32:35;7.60;99.90
42833;DHT22;64089;51.478;5.692;2024-01-30T04:35:01;7.70;99.90
42833;DHT22;64089;51.478;5.692;2024-01-30T04:37:27;7.70;99.90
42833;DHT22;64089;51.478;5.692;2024-01-30T04:39:53;7.70;99.90
42833;DHT22;64089;51.478;5.692;2024-01-30T04:42:19;7.70;99.90
42833;DHT22;64089;51.478;5.692;2024-01-30T04:44:44;7.70;99.90
42833;DHT22;64089;51.478;5.692;2024-01-30T04:47:10;7.70;99.90
42833;DHT22;64089;51.478;5.692;2024-01-30T04:49:38;7.70;99.90
42833;DHT22;64089;51.478;5.692;2024-01-30T04:52:05;7.70;99.90
42833;DHT22;64089;51.478;5.692;2024-01-30T04:54:31;7.70;99.90
42833;DHT22;64089;51.478;5.692;2024-01-30T04:56:57;7.70;99.90
42833;DHT22;64089;51.478;5.692;2024-01-30T04:59:22;7.70;99.90
42833;DHT22;64089;51.478;5.692;2024-01-30T05:01:48;7.70;99.90
42833;DHT22;64089;51.478;5.692;2024-01-30T05:04:13;7.70;99.90
42833;DHT22;64089;51.478;5.692;2024-01-30T05:06:39;7.70;99.90
42833;DHT22;64089;51.478;5.692;2024-01-30T05:09:04;7.80;99.90
42833;DHT22;64089;51.478;5.692;2024-01-30T05:11:30;7.80;99.90
42833;DHT22;64089;51.478;5.692;2024-01-30T05:13:56;7.80;99.90
42833;DHT22;64089;51.478;5.692;2024-01-30T05:16:22;7.90;99.90
42833;DHT22;64089;51.478;5.692;2024-01-30T05:18:48;7.90;99.90
42833;DHT22;64089;51.478;5.692;2024-01-30T05:21:13;7.90;99.90
42833;DHT22;64089;51.478;5.692;2024-01-30T05:23:39;8.00;99.90
42833;DHT22;64089;51.478;5.692;2024-01-30T05:26:07;8.00;99.90
42833;DHT22;64089;51.478;5.692;2024-01-30T05:28:33;8.00;99.90
42833;DHT22;64089;51.478;5.692;2024-01-30T05:30:59;8.00;99.90
42833;DHT22;64089;51.478;5.692;2024-01-30T05:33:24;8.00;99.90
42833;DHT22;64089;51.478;5.692;2024-01-30T05:35:53;8.00;99.90
42833;DHT22;64089;51.478;5.692;2024-01-30T05:38:20;8.00;99.90
42833;DHT22;64089;51.478;5.692;2024-01-30T05:40:45;8.00;99.90
42833;DHT22;64089;51.478;5.692;2024-01-30T05:43:11;8.00;99.90
42833;DHT22;64089;51.478;5.692;2024-01-30T05:45:37;8.00;99.90
42833;DHT22;64089;51.478;5.692;2024-01-30T05:48:03;8.10;99.90
42833;DHT22;64089;51.478;5.692;2024-01-30T05:50:29;8.10;99.90
42833;DHT22;64089;51.478;5.692;2024-01-30T05:52:55;8.10;99.90
42833;DHT22;64089;51.478;5.692;2024-01-30T05:55:20;8.10;99.90
42833;DHT22;64089;51.478;5.692;2024-01-30T05:57:46;8.10;99.90
42833;DHT22;64089;51.478;5.692;2024-01-30T06:00:12;8.10;99.90
42833;DHT22;64089;51.478;5.692;2024-01-30T06:02:38;8.10;99.90
42833;DHT22;64089;51.478;5.692;2024-01-30T06:05:04;8.10;99.90
42833;DHT22;64089;51.478;5.692;2024-01-30T06:07:29;8.10;99.90
42833;DHT22;64089;51.478;5.692;2024-01-30T06:09:55;8.10;99.90
42833;DHT22;64089;51.478;5.692;2024-01-30T06:12:21;8.10;99.90
42833;DHT22;64089;51.478;5.692;2024-01-30T06:14:46;8.20;99.90
42833;DHT22;64089;51.478;5.692;2024-01-30T06:17:12;8.10;99.90
42833;DHT22;64089;51.478;5.692;2024-01-30T06:19:38;8.10;99.90
42833;DHT22;64089;51.478;5.692;2024-01-30T06:22:04;8.20;99.90
42833;DHT22;64089;51.478;5.692;2024-01-30T06:24:30;8.20;99.90
42833;DHT22;64089;51.478;5.692;2024-01-30T06:26:56;8.20;99.90
42833;DHT22;64089;51.478;5.692;2024-01-30T06:29:21;8.20;99.90
42833;DHT22;64089;51.478;5.692;2024-01-30T06:31:47;8.20;99.90
42833;DHT22;64089;51.478;5.692;2024-01-30T06:34:13;8.20;99.90
42833;DHT22;64089;51.478;5.692;2024-01-30T06:36:38;8.30;99.90
42833;DHT22;64089;51.478;5.692;2024-01-30T06:39:04;8.30;99.90
42833;DHT22;64089;51.478;5.692;2024-01-30T06:41:30;8.30;99.90
42833;DHT22;64089;51.478;5.692;2024-01-30T06:43:56;8.20;99.90
42833;DHT22;64089;51.478;5.692;2024-01-30T06:46:22;8.20;99.90
42833;DHT22;64089;51.478;5.692;2024-01-30T06:48:47;8.20;99.90
42833;DHT22;64089;51.478;5.692;2024-01-30T06:51:13;8.20;99.90
42833;DHT22;64089;51.478;5.692;2024-01-30T06:53:39;8.20;99.90
42833;DHT22;64089;51.478;5.692;2024-01-30T06:56:05;8.20;99.90
42833;DHT22;64089;51.478;5.692;2024-01-30T06:58:30;8.20;99.90
42833;DHT22;64089;51.478;5.692;2024-01-30T07:00:56;8.20;99.90
42833;DHT22;64089;51.478;5.692;2024-01-30T07:03:22;8.20;99.90
42833;DHT22;64089;51.478;5.692;2024-01-30T07:05:48;8.30;99.90
42833;DHT22;64089;51.478;5.692;2024-01-30T07:08:15;8.30;99.90
42833;DHT22;64089;51.478;5.692;2024-01-30T07:10:45;8.40;99.90
42833;DHT22;64089;51.478;5.692;2024-01-30T07:13:11;8.40;99.90
42833;DHT22;64089;51.478;5.692;2024-01-30T07:15:37;8.50;99.90
42833;DHT22;64089;51.478;5.692;2024-01-30T07:18:03;8.60;99.90
42833;DHT22;64089;51.478;5.692;2024-01-30T07:20:30;8.70;99.90
42833;DHT22;64089;51.478;5.692;2024-01-30T07:23:00;8.70;99.90
42833;DHT22;64089;51.478;5.692;2024-01-30T07:25:26;8.80;99.90
42833;DHT22;64089;51.478;5.692;2024-01-30T07:27:55;8.90;99.90
42833;DHT22;64089;51.478;5.692;2024-01-30T07:30:21;9.00;99.90
42833;DHT22;64089;51.478;5.692;2024-01-30T07:32:48;9.00;99.90
42833;DHT22;64089;51.478;5.692;2024-01-30T07:35:17;9.10;99.90
42833;DHT22;64089;51.478;5.692;2024-01-30T07:37:42;9.10;99.90
42833;DHT22;64089;51.478;5.692;2024-01-30T07:40:08;9.10;99.90
42833;DHT22;64089;51.478;5.692;2024-01-30T07:42:34;9.20;99.90
42833;DHT22;64089;51.478;5.692;2024-01-30T07:45:00;9.10;99.90
42833;DHT22;64089;51.478;5.692;2024-01-30T07:47:26;9.10;99.90
42833;DHT22;64089;51.478;5.692;2024-01-30T07:49:52;9.20;99.90
42833;DHT22;64089;51.478;5.692;2024-01-30T07:52:18;9.20;99.90
42833;DHT22;64089;51.478;5.692;2024-01-30T07:54:51;9.30;99.90
42833;DHT22;64089;51.478;5.692;2024-01-30T07:57:17;9.30;99.90
42833;DHT22;64089;51.478;5.692;2024-01-30T07:59:43;9.40;99.90
42833;DHT22;64089;51.478;5.692;2024-01-30T08:02:10;9.40;99.90
42833;DHT22;64089;51.478;5.692;2024-01-30T08:04:36;9.40;99.90
42833;DHT22;64089;51.478;5.692;2024-01-30T08:07:01;9.40;99.90
42833;DHT22;64089;51.478;5.692;2024-01-30T08:09:27;9.50;99.90
42833;DHT22;64089;51.478;5.692;2024-01-30T08:11:52;9.50;99.90
42833;DHT22;64089;51.478;5.692;2024-01-30T08:14:18;9.60;99.90
42833;DHT22;64089;51.478;5.692;2024-01-30T08:16:44;9.60;99.90
42833;DHT22;64089;51.478;5.692;2024-01-30T08:19:10;9.70;99.90
42833;DHT22;64089;51.478;5.692;2024-01-30T08:21:35;9.80;99.90
42833;DHT22;64089;51.478;5.692;2024-01-30T08:24:05;9.80;99.90
42833;DHT22;64089;51.478;5.692;2024-01-30T08:26:34;9.80;99.90
42833;DHT22;64089;51.478;5.692;2024-01-30T08:29:01;9.80;99.90
42833;DHT22;64089;51.478;5.692;2024-01-30T08:31:27;9.80;99.90
42833;DHT22;64089;51.478;5.692;2024-01-30T08:33:52;9.80;99.90
42833;DHT22;64089;51.478;5.692;2024-01-30T08:36:19;9.90;99.90
42833;DHT22;64089;51.478;5.692;2024-01-30T08:38:44;9.80;99.90
42833;DHT22;64089;51.478;5.692;2024-01-30T08:41:10;9.90;99.90
42833;DHT22;64089;51.478;5.692;2024-01-30T08:43:36;9.90;99.90
42833;DHT22;64089;51.478;5.692;2024-01-30T08:46:02;10.00;99.90
42833;DHT22;64089;51.478;5.692;2024-01-30T08:48:28;10.10;99.90
42833;DHT22;64089;51.478;5.692;2024-01-30T08:50:53;10.10;99.90
42833;DHT22;64089;51.478;5.692;2024-01-30T08:53:19;10.10;99.90
42833;DHT22;64089;51.478;5.692;2024-01-30T08:55:45;10.20;99.90
42833;DHT22;64089;51.478;5.692;2024-01-30T08:58:10;10.20;99.90
42833;DHT22;64089;51.478;5.692;2024-01-30T09:00:36;10.30;99.90
42833;DHT22;64089;51.478;5.692;2024-01-30T09:03:02;10.30;99.90
42833;DHT22;64089;51.478;5.692;2024-01-30T09:05:28;10.30;99.90
42833;DHT22;64089;51.478;5.692;2024-01-30T09:07:53;10.30;99.90
42833;DHT22;64089;51.478;5.692;2024-01-30T09:10:19;10.40;99.90
42833;DHT22;64089;51.478;5.692;2024-01-30T09:12:46;10.40;99.90
42833;DHT22;64089;51.478;5.692;2024-01-30T09:15:12;10.40;99.90
42833;DHT22;64089;51.478;5.692;2024-01-30T09:17:37;10.50;99.90
42833;DHT22;64089;51.478;5.692;2024-01-30T09:20:03;10.50;99.90
42833;DHT22;64089;51.478;5.692;2024-01-30T09:22:29;10.50;99.90
42833;DHT22;64089;51.478;5.692;2024-01-30T09:24:54;10.60;99.90
42833;DHT22;64089;51.478;5.692;2024-01-30T09:27:20;10.70;99.90
42833;DHT22;64089;51.478;5.692;2024-01-30T09:29:46;10.80;99.90
42833;DHT22;64089;51.478;5.692;2024-01-30T09:32:11;10.70;99.90
42833;DHT22;64089;51.478;5.692;2024-01-30T09:34:37;10.80;99.90
42833;DHT22;64089;51.478;5.692;2024-01-30T09:37:02;10.80;99.90
42833;DHT22;64089;51.478;5.692;2024-01-30T09:39:28;10.80;99.90
42833;DHT22;64089;51.478;5.692;2024-01-30T09:42:18;10.80;99.90
42833;DHT22;64089;51.478;5.692;2024-01-30T09:44:47;10.80;99.90
42833;DHT22;64089;51.478;5.692;2024-01-30T09:47:16;10.90;99.90
42833;DHT22;64089;51.478;5.692;2024-01-30T09:49:43;10.90;99.90
42833;DHT22;64089;51.478;5.692;2024-01-30T09:52:09;10.90;99.90
42833;DHT22;64089;51.478;5.692;2024-01-30T09:54:35;10.90;99.90
42833;DHT22;64089;51.478;5.692;2024-01-30T09:57:01;11.00;99.90
42833;DHT22;64089;51.478;5.692;2024-01-30T09:59:26;11.00;99.90
42833;DHT22;64089;51.478;5.692;2024-01-30T10:01:52;11.10;99.90
42833;DHT22;64089;51.478;5.692;2024-01-30T10:04:18;11.00;99.90
42833;DHT22;64089;51.478;5.692;2024-01-30T10:06:43;11.00;99.90
42833;DHT22;64089;51.478;5.692;2024-01-30T10:09:09;11.00;99.90
42833;DHT22;64089;51.478;5.692;2024-01-30T10:11:36;11.10;99.90
42833;DHT22;64089;51.478;5.692;2024-01-30T10:14:02;11.10;99.90
42833;DHT22;64089;51.478;5.692;2024-01-30T10:16:28;11.20;99.90
42833;DHT22;64089;51.478;5.692;2024-01-30T10:18:53;11.30;99.90
42833;DHT22;64089;51.478;5.692;2024-01-30T10:21:19;11.40;99.90
42833;DHT22;64089;51.478;5.692;2024-01-30T10:23:45;11.60;99.90
42833;DHT22;64089;51.478;5.692;2024-01-30T10:26:10;11.70;99.90
42833;DHT22;64089;51.478;5.692;2024-01-30T10:28:36;11.90;99.90
42833;DHT22;64089;51.478;5.692;2024-01-30T10:31:02;12.00;99.90
42833;DHT22;64089;51.478;5.692;2024-01-30T10:33:31;12.00;99.90
42833;DHT22;64089;51.478;5.692;2024-01-30T10:36:06;11.90;99.90
42833;DHT22;64089;51.478;5.692;2024-01-30T10:38:33;11.90;99.90
42833;DHT22;64089;51.478;5.692;2024-01-30T10:41:00;11.80;99.90
42833;DHT22;64089;51.478;5.692;2024-01-30T10:43:31;11.80;99.90
42833;DHT22;64089;51.478;5.692;2024-01-30T10:46:08;11.80;99.90
42833;DHT22;64089;51.478;5.692;2024-01-30T10:48:36;11.70;99.90
42833;DHT22;64089;51.478;5.692;2024-01-30T10:51:08;11.70;99.90
42833;DHT22;64089;51.478;5.692;2024-01-30T10:53:35;11.80;99.90
42833;DHT22;64089;51.478;5.692;2024-01-30T10:56:02;11.80;99.90
42833;DHT22;64089;51.478;5.692;2024-01-30T10:58:29;11.80;99.90
42833;DHT22;64089;51.478;5.692;2024-01-30T11:00:54;11.90;99.90
42833;DHT22;64089;51.478;5.692;2024-01-30T11:03:20;12.00;99.90
42833;DHT22;64089;51.478;5.692;2024-01-30T11:05:51;11.90;99.90
42833;DHT22;64089;51.478;5.692;2024-01-30T11:08:26;11.80;99.90
42833;DHT22;64089;51.478;5.692;2024-01-30T11:10:58;11.80;99.90
42833;DHT22;64089;51.478;5.692;2024-01-30T11:13:30;11.80;99.90
42833;DHT22;64089;51.478;5.692;2024-01-30T11:16:03;11.90;99.90
42833;DHT22;64089;51.478;5.692;2024-01-30T11:18:30;12.10;99.90
42833;DHT22;64089;51.478;5.692;2024-01-30T11:20:59;12.20;99.90
42833;DHT22;64089;51.478;5.692;2024-01-30T11:23:28;12.20;99.90
42833;DHT22;64089;51.478;5.692;2024-01-30T11:25:54;12.40;99.90
42833;DHT22;64089;51.478;5.692;2024-01-30T11:28:21;12.60;99.90
42833;DHT22;64089;51.478;5.692;2024-01-30T11:30:47;12.60;99.90
42833;DHT22;64089;51.478;5.692;2024-01-30T11:33:27;12.50;99.90
42833;DHT22;64089;51.478;5.692;2024-01-30T11:35:53;12.50;99.90
42833;DHT22;64089;51.478;5.692;2024-01-30T11:38:18;12.40;99.90
42833;DHT22;64089;51.478;5.692;2024-01-30T11:40:44;12.20;99.90
42833;DHT22;64089;51.478;5.692;2024-01-30T11:43:11;12.20;99.90
42833;DHT22;64089;51.478;5.692;2024-01-30T11:45:37;12.10;99.90
42833;DHT22;64089;51.478;5.692;2024-01-30T11:48:03;12.20;99.90
42833;DHT22;64089;51.478;5.692;2024-01-30T11:50:33;12.30;99.90
42833;DHT22;64089;51.478;5.692;2024-01-30T11:53:00;12.40;99.90
42833;DHT22;64089;51.478;5.692;2024-01-30T11:55:26;12.40;99.90
42833;DHT22;64089;51.478;5.692;2024-01-30T11:57:55;12.40;99.90
42833;DHT22;64089;51.478;5.692;2024-01-30T12:00:20;12.30;99.90
42833;DHT22;64089;51.478;5.692;2024-01-30T12:02:54;12.30;99.90
42833;DHT22;64089;51.478;5.692;2024-01-30T12:05:24;12.40;99.90
42833;DHT22;64089;51.478;5.692;2024-01-30T12:07:50;12.40;99.90
42833;DHT22;64089;51.478;5.692;2024-01-30T12:10:19;12.60;99.90
42833;DHT22;64089;51.478;5.692;2024-01-30T12:12:47;12.60;99.90
42833;DHT22;64089;51.478;5.692;2024-01-30T12:15:13;12.60;99.90
42833;DHT22;64089;51.478;5.692;2024-01-30T12:17:41;12.60;99.90
42833;DHT22;64089;51.478;5.692;2024-01-30T12:20:11;12.60;99.90
42833;DHT22;64089;51.478;5.692;2024-01-30T12:25:11;12.70;99.90
42833;DHT22;64089;51.478;5.692;2024-01-30T12:27:38;12.70;99.90
42833;DHT22;64089;51.478;5.692;2024-01-30T12:30:11;12.80;99.90
42833;DHT22;64089;51.478;5.692;2024-01-30T12:32:39;12.60;99.90
42833;DHT22;64089;51.478;5.692;2024-01-30T12:35:12;12.60;99.90
42833;DHT22;64089;51.478;5.692;2024-01-30T12:37:39;12.50;99.90
42833;DHT22;64089;51.478;5.692;2024-01-30T12:40:05;12.50;99.90
42833;DHT22;64089;51.478;5.692;2024-01-30T12:42:34;12.50;99.90
42833;DHT22;64089;51.478;5.692;2024-01-30T12:45:01;12.50;99.90
42833;DHT22;64089;51.478;5.692;2024-01-30T12:47:27;12.40;99.90
42833;DHT22;64089;51.478;5.692;2024-01-30T12:49:53;12.30;99.90
42833;DHT22;64089;51.478;5.692;2024-01-30T12:52:20;12.10;99.90
42833;DHT22;64089;51.478;5.692;2024-01-30T12:54:47;12.00;99.90
42833;DHT22;64089;51.478;5.692;2024-01-30T12:57:12;11.90;99.90
42833;DHT22;64089;51.478;5.692;2024-01-30T12:59:38;11.90;99.90
42833;DHT22;64089;51.478;5.692;2024-01-30T13:02:04;11.80;99.90
42833;DHT22;64089;51.478;5.692;2024-01-30T13:04:30;11.80;99.90
42833;DHT22;64089;51.478;5.692;2024-01-30T13:06:57;11.90;99.90
42833;DHT22;64089;51.478;5.692;2024-01-30T13:09:23;12.00;99.90
42833;DHT22;64089;51.478;5.692;2024-01-30T13:11:53;12.30;99.90
42833;DHT22;64089;51.478;5.692;2024-01-30T13:14:19;12.50;99.90
42833;DHT22;64089;51.478;5.692;2024-01-30T13:16:44;12.60;99.90
42833;DHT22;64089;51.478;5.692;2024-01-30T13:19:10;12.60;99.90
42833;DHT22;64089;51.478;5.692;2024-01-30T13:21:36;12.60;99.90
42833;DHT22;64089;51.478;5.692;2024-01-30T13:24:01;12.50;99.90
42833;DHT22;64089;51.478;5.692;2024-01-30T13:26:27;12.40;99.90
42833;DHT22;64089;51.478;5.692;2024-01-30T13:28:53;12.10;99.90
42833;DHT22;64089;51.478;5.692;2024-01-30T13:31:19;11.80;99.90
42833;DHT22;64089;51.478;5.692;2024-01-30T13:33:44;11.60;99.90
42833;DHT22;64089;51.478;5.692;2024-01-30T13:36:11;11.50;99.90
42833;DHT22;64089;51.478;5.692;2024-01-30T13:38:38;11.50;99.90
42833;DHT22;64089;51.478;5.692;2024-01-30T13:41:04;11.50;99.90
42833;DHT22;64089;51.478;5.692;2024-01-30T13:43:30;11.50;99.90
42833;DHT22;64089;51.478;5.692;2024-01-30T13:45:56;11.50;99.90
42833;DHT22;64089;51.478;5.692;2024-01-30T13:48:21;11.60;99.90
42833;DHT22;64089;51.478;5.692;2024-01-30T13:50:47;11.80;99.90
42833;DHT22;64089;51.478;5.692;2024-01-30T13:53:13;11.90;99.90
42833;DHT22;64089;51.478;5.692;2024-01-30T13:55:39;12.10;99.90
42833;DHT22;64089;51.478;5.692;2024-01-30T13:58:05;12.30;99.90
42833;DHT22;64089;51.478;5.692;2024-01-30T14:00:31;12.20;99.90
42833;DHT22;64089;51.478;5.692;2024-01-30T14:02:57;12.30;99.90
42833;DHT22;64089;51.478;5.692;2024-01-30T14:05:24;12.20;99.90
42833;DHT22;64089;51.478;5.692;2024-01-30T14:07:51;12.20;99.90
42833;DHT22;64089;51.478;5.692;2024-01-30T14:10:17;12.10;99.90
42833;DHT22;64089;51.478;5.692;2024-01-30T14:12:43;12.10;99.90
42833;DHT22;64089;51.478;5.692;2024-01-30T14:15:09;12.10;99.90
42833;DHT22;64089;51.478;5.692;2024-01-30T14:17:36;11.90;99.90
42833;DHT22;64089;51.478;5.692;2024-01-30T14:20:03;11.90;99.90
42833;DHT22;64089;51.478;5.692;2024-01-30T14:22:32;11.80;99.90
42833;DHT22;64089;51.478;5.692;2024-01-30T14:24:59;11.70;99.90
42833;DHT22;64089;51.478;5.692;2024-01-30T14:27:24;11.60;99.90
42833;DHT22;64089;51.478;5.692;2024-01-30T14:29:50;11.60;99.90
42833;DHT22;64089;51.478;5.692;2024-01-30T14:32:16;11.50;99.90
42833;DHT22;64089;51.478;5.692;2024-01-30T14:34:42;11.50;99.90
42833;DHT22;64089;51.478;5.692;2024-01-30T14:37:08;11.50;99.90
42833;DHT22;64089;51.478;5.692;2024-01-30T14:39:34;11.40;99.90
42833;DHT22;64089;51.478;5.692;2024-01-30T14:42:03;11.40;99.90
42833;DHT22;64089;51.478;5.692;2024-01-30T14:44:29;11.30;99.90
42833;DHT22;64089;51.478;5.692;2024-01-30T14:46:54;11.30;99.90
42833;DHT22;64089;51.478;5.692;2024-01-30T14:49:20;11.30;99.90
42833;DHT22;64089;51.478;5.692;2024-01-30T14:51:49;11.20;99.90
42833;DHT22;64089;51.478;5.692;2024-01-30T14:54:15;11.20;99.90
42833;DHT22;64089;51.478;5.692;2024-01-30T14:56:40;11.20;99.90
42833;DHT22;64089;51.478;5.692;2024-01-30T14:59:06;11.30;99.90
42833;DHT22;64089;51.478;5.692;2024-01-30T15:01:31;11.30;99.90
42833;DHT22;64089;51.478;5.692;2024-01-30T15:03:57;11.40;99.90
42833;DHT22;64089;51.478;5.692;2024-01-30T15:06:23;11.30;99.90
42833;DHT22;64089;51.478;5.692;2024-01-30T15:08:51;11.10;99.90
42833;DHT22;64089;51.478;5.692;2024-01-30T15:11:17;10.90;99.90
42833;DHT22;64089;51.478;5.692;2024-01-30T15:13:42;10.70;99.90
42833;DHT22;64089;51.478;5.692;2024-01-30T15:16:08;10.60;99.90
42833;DHT22;64089;51.478;5.692;2024-01-30T15:18:34;10.50;99.90
42833;DHT22;64089;51.478;5.692;2024-01-30T15:21:00;10.40;99.90
42833;DHT22;64089;51.478;5.692;2024-01-30T15:23:25;10.40;99.90
42833;DHT22;64089;51.478;5.692;2024-01-30T15:25:51;10.40;99.90
42833;DHT22;64089;51.478;5.692;2024-01-30T15:28:16;10.50;99.90
42833;DHT22;64089;51.478;5.692;2024-01-30T15:30:42;10.50;99.90
42833;DHT22;64089;51.478;5.692;2024-01-30T15:33:12;10.30;99.90
42833;DHT22;64089;51.478;5.692;2024-01-30T15:35:37;10.20;99.90
42833;DHT22;64089;51.478;5.692;2024-01-30T15:38:04;10.20;99.90